Aerodrome Latest Weathers

# Airport/Station Observation Time (Local Time) Wind Visibility (km) Weather Temp. (°C) Dewdrop (°C) Air Pressure (hPa)
Direction (from) Speed (km/h)
1 Sultan Iskandar Muda - Banda Aceh 2017-11-23 23:30:00 WIB Tenggara 5.6 >=10 Berawan 25 24 1009
2 Cut Nyak Dien Nagan Raya - Meulaboh, NAD 2017-11-23 23:00:00 WIB Timur 3.7 4.0 Halimun 24 24 1010
3 Malikussaleh - Lhokseumawe 2017-11-23 23:00:00 WIB Selatan 1.9 6.0 Berawan 26 25 1009
4 Binaka - Gunung Sitoli 2017-11-23 23:00:00 WIB Tenang 5.0 Cerah - berawan 24 24 1009
5 Kualanamu International Airport - Deli Serdang 2017-11-23 23:30:00 WIB Selatan 7.4 6.0 Berawan 26 25 1009
6 Dr. Ferdinand Lumban Tobing - Pinangsori (Sibolga) 2017-11-23 23:30:00 WIB Variabel 3.7 >=10 Berawan 24 24 1009
7 Aek Godang - Padang Sidempuan 2017-11-23 23:00:00 WIB Barat 7.4 6.0 Hujan ringan 24 21 1010
8 Minangkabau International Airport - Padang 2017-11-23 23:30:00 WIB Timur Laut 3.7 >=10 Cerah - berawan 24 23 1010
9 Sultan Syarif Kasim II - Pekanbaru 2017-11-23 23:45:00 WIB Barat Laut 9.3 8.0 Hujan ringan 25 23 1008
10 Fatmawati Sukarno - Bengkulu 2017-11-23 23:00:00 WIB Utara 7.4 7.0 Cerah - berawan 26 24 1008
11 Sultan Thaha - Jambi 2017-11-23 23:30:00 WIB Barat Laut 9.3 6.0 Berawan 27 24 1008
12 Hang Nadim - Batam 2017-11-23 23:00:00 WIB Tenang >=10 Cerah - berawan 26 24 1011
13 Raja Haji Fisabilillah - Tanjung Pinang 2017-11-23 23:30:00 WIB Barat 3.7 >=10 Cerah - berawan 25 24 1009
14 Sultan Mahmud Badaruddin II - Palembang 2017-11-23 23:00:00 WIB Barat Daya 5.6 5.0 Cerah - berawan 27 25 1008
15 Radin Inten II - Lampung 2017-11-23 23:30:00 WIB Tenang >=10 Berawan 26 23 1008
16 Depati Amir - Pangkal Pinang 2017-11-23 23:30:00 WIB Barat 3.7 7.0 Cerah - berawan 25 24 1007
17 Budiarto - Curug 2017-11-23 23:30:00 WIB Barat 13.0 >=10 Cerah - berawan 26 26 1007
18 Soekarno Hatta - Jakarta 2017-11-23 23:30:00 WIB Barat Daya 13.0 7.0 Cerah - berawan 27 23 1007
19 H.A.S. Hanandjoeddin - Tanjung Pandan 2017-11-23 22:00:00 WIB Timur Laut 5.6 >=10 Berawan 26 25 1008
20 Supadio - Pontianak 2017-11-23 23:00:00 WIB Tenang 6.0 Berawan 25 24 1008
21 Rahadi Osman - Ketapang 2017-11-23 23:00:00 WIB Barat Laut 51.9 6.0 Berawan 25 24 1008
22 Ahmad Yani - Semarang 2017-11-23 23:00:00 WIB Tenggara 3.7 6.0 Berawan 26 25 1006
23 Adi Soemarmo - Surakarta 2017-11-23 22:00:00 WIB Tenggara 9.3 6.0 Hujan ringan 25 24 1007
24 Susilo - Sintang 2017-11-23 22:10:00 WIB Tenang 4.0 Hujan ringan 25 24 1008
25 Iskandar - Pangkalan Bun 2017-11-23 23:30:00 WIB Barat Laut 5.6 6.0 Berawan 25 24 1007
26 Nanga Pinoh 2017-11-23 22:00:00 WIB Utara 3.7 1.0 Hujan ringan 26 25 1008
27 Juanda - Surabaya 2017-11-23 23:30:00 WIB Tenang 8.0 Cerah - berawan 26 25 1006
28 Pangsuma - Putussibau 2017-11-23 22:00:00 WIB Tenang 2.0 Hujan ringan 25 24 1010
29 Haji Asan - Sampit 2017-11-23 22:00:00 WIB Tenang 7.0 Guntur di sekitarnya 24 23 1007
30 Tjilik Riwut - Palangkaraya 2017-11-23 22:00:00 WIB Barat 11.1 8.0 Berawan 25 24 1010
31 Beringin - Muara Teweh 2017-11-23 22:00:00 WIB Tenang 6.0 Berawan 27 25 1008
32 Sanggu - Buntok 2017-11-23 22:00:00 WIB Utara 5.6 6.0 Guntur di sekitarnya 26 25 1008
33 Syamsudin Noor - Banjarmasin 2017-11-24 00:42:00 WITA Tenggara 5.6 >=10 Hujan 26 25 1006
34 Ngurah Rai - Denpasar 2017-11-23 23:30:00 WITA Variabel 3.7 6.0 Hujan ringan 26 25 1007
35 Bandara Internasional Lombok - Praya 2017-11-24 00:30:00 WITA Barat 13.0 >=10 Berawan 25 24 1007
36 Gusti Sjamsir Alam - Kota Baru 2017-11-24 00:30:00 WITA Timur 1.9 Cerah 25 25 1006
37 Sepinggan - Balikpapan 2017-11-24 00:30:00 WITA Barat Laut 7.4 9.0 Cerah - berawan 27 24 1006
38 Tanjung Harapan - Tanjung Selor 2017-11-24 00:00:00 WITA Tenang 8.0 Berawan 25 24 1008
39 Sultan Muhammad Kaharuddin - Sumbawa Besar 2017-11-24 00:00:00 WITA Tenggara 7.4 7.0 Berawan 26 24 1006
40 Juwata - Tarakan 2017-11-23 23:00:00 WITA Tenang 8.0 Cerah - berawan 26 25 1008
41 Nunukan 2017-11-23 23:00:00 WITA Tenang 7.0 Cerah - berawan 26 25 1007
42 Sultan Hasanuddin - Makassar 2017-11-24 00:30:00 WITA Tenggara 5.6 8.0 Cerah - berawan 26 24 1007
43 Komodo - Labuan Bajo 2017-11-24 00:00:00 WITA Tenang 7.0 Berawan 26 25 1007
44 Mutiara - Palu 2017-11-24 00:30:00 WITA Timur 3.7 6.0 Berawan 25 23 1009
45 Umbu Mehang Kunda - Waingapu 2017-11-23 23:00:00 WITA Tenang 5.0 Cerah - berawan 27 25 1008
46 Andi Jemma - Masamba 2017-11-24 00:00:00 WITA Utara 5.6 5.0 Hujan ringan 25 24 1007
47 Frans Sales Lega - Ruteng 2017-11-23 23:00:00 WITA Selatan 3.7 4.0 Udara kabur 19 19 1006
48 Kasiguncu - Poso 2017-11-23 23:00:00 WITA Tenang 9.0 Berawan 26 25 1007
49 Sultan Bantilan - Toli Toli 2017-11-23 23:00:00 WITA Tenang >=10 Cerah - berawan 26 24 1007
50 Tardamu - Sabu 2017-11-24 00:00:00 WITA Tenang 5.0 Cerah - berawan 26 26 1007
51 Fransiskus Xaverius Seda - Maumere 2017-11-24 00:00:00 WITA Barat Daya 3.7 8.0 Berawan 25 24 1008
52 Syukuran Aminuddin Amir - Luwuk 2017-11-24 00:00:00 WITA Barat 11.1 >=10 Cerah - berawan 27 23 1006
53 Djalaluddin - Gorontalo 2017-11-23 23:00:00 WITA Tenang >=10 Berawan 26 25 1006
54 David Constantijn Saudale / Lekunik - Rote 2017-11-24 00:00:00 WITA Selatan 5.6 >=10 Berawan 24 24 1012
55 El Tari - Kupang 2017-11-24 00:30:00 WITA Tenang >=10 Cerah - berawan 25 25 1007
56 Mali Kalabahi - Alor 2017-11-24 00:00:00 WITA Tenang 8.0 Guntur di sekitarnya 26 25 1007
57 Sam Ratulangi - Manado 2017-11-24 00:30:00 WITA Variabel 1.9 9.0 Cerah - berawan 25 25 1007
58 Naha - Tahuna 2017-11-23 23:00:00 WITA Tenang 9.0 Berawan 26 26 1007
59 Emalamo - Sanana 2017-11-24 00:00:00 WIT Barat 1.9 >=10 Cerah - berawan 26 24 1007
60 Namlea 2017-11-24 00:00:00 WIT Selatan 9.3 9.0 Cerah - berawan 26 25 1006
61 Sultan Babullah - Ternate 2017-11-24 01:30:00 WIT Variabel 3.7 >=10 Berawan 28 26 1007
62 Oesman Sadik - Labuha 2017-11-24 00:00:00 WIT Tenang 9.0 Berawan 26 25 1007
63 Gamar Malamo - Galela 2017-11-24 00:00:00 WIT Barat Daya 3.7 >=10 Berawan 26 26 1007
64 Pattimura - Ambon 2017-11-24 01:30:00 WIT Timur Laut 7.4 >=10 Cerah - berawan 25 23 1006
65 Amahai 2017-11-24 01:00:00 WIT Tenang >=10 Berawan 26 25 1006
66 Seigun - Sorong Kota 2017-11-24 01:30:00 WIT Tenang 7.0 Cerah - berawan 26 25 1006
67 Mathilda Batlayeri - Saumlaki 2017-11-24 00:00:00 WIT Tenang >=10 Cerah - berawan 27 25 1007
68 Torea - Fak Fak 2017-11-24 00:00:00 WIT Tenang 6.0 Cerah - berawan 24 22 1008
69 Rendani - Manokwari 2017-11-24 00:30:00 WIT Tenang 6.0 Berawan 28 25 1006
70 Frans Kaisiepo - Biak 2017-11-24 01:30:00 WIT Barat Laut 7.4 >=10 Cerah - berawan 27 25 1006
71 Sudjarwo Tjondronegoro - Serui 2017-11-24 01:00:00 WIT Tenang 6.0 Cerah - berawan 26 23 1005
72 Moses Kilangin - Timika 2017-11-24 01:30:00 WIT Barat Laut 5.6 6.0 Cerah - berawan 25 25 1008
73 Mararena / Orai - Sarmi 2017-11-24 00:00:00 WIT Tenang 8.0 Cerah - berawan 26 24 1007
74 Mopah - Merauke 2017-11-24 00:00:00 WIT Tenang 8.0 Berawan 27 24 1008
75 Sentani - Jayapura 2017-11-24 00:00:00 WIT Barat 3.7 >=10 Cerah - berawan 25 23 1006

Satellite Images

Wave Height Forecast

Wind Forecast

Forest Fires